sensor_id;sensor_type;location;lat;lon;timestamp;pressure;altitude;pressure_sealevel;temperature;humidity
9538;BME280;4807;48.024;11.726;2023-02-19T00:00:15;95427.59;;;10.76;60.47
9538;BME280;4807;48.024;11.726;2023-02-19T00:03:25;95425.16;;;10.81;60.34
9538;BME280;4807;48.024;11.726;2023-02-19T00:06:34;95413.69;;;10.81;59.99
9538;BME280;4807;48.024;11.726;2023-02-19T00:09:42;95407.53;;;10.80;60.40
9538;BME280;4807;48.024;11.726;2023-02-19T00:12:50;95417.31;;;10.73;60.55
9538;BME280;4807;48.024;11.726;2023-02-19T00:16:05;95402.59;;;10.77;60.03
9538;BME280;4807;48.024;11.726;2023-02-19T00:19:17;95411.22;;;10.79;60.37
9538;BME280;4807;48.024;11.726;2023-02-19T00:22:26;95410.38;;;10.79;60.42
9538;BME280;4807;48.024;11.726;2023-02-19T00:25:35;95402.97;;;10.74;60.79
9538;BME280;4807;48.024;11.726;2023-02-19T00:28:45;95402.53;;;10.70;60.79
9538;BME280;4807;48.024;11.726;2023-02-19T00:31:53;95401.31;;;10.73;60.34
9538;BME280;4807;48.024;11.726;2023-02-19T00:35:05;95397.66;;;10.74;60.07
9538;BME280;4807;48.024;11.726;2023-02-19T00:38:13;95393.97;;;10.75;59.90
9538;BME280;4807;48.024;11.726;2023-02-19T00:41:22;95397.13;;;10.64;60.64
9538;BME280;4807;48.024;11.726;2023-02-19T00:44:32;95394.75;;;10.69;60.28
9538;BME280;4807;48.024;11.726;2023-02-19T00:47:40;95399.50;;;10.74;60.00
9538;BME280;4807;48.024;11.726;2023-02-19T00:50:50;95388.13;;;10.65;61.05
9538;BME280;4807;48.024;11.726;2023-02-19T00:53:59;95387.00;;;10.74;60.26
9538;BME280;4807;48.024;11.726;2023-02-19T00:57:07;95379.09;;;10.59;60.82
9538;BME280;4807;48.024;11.726;2023-02-19T01:00:15;95388.19;;;10.71;60.28
9538;BME280;4807;48.024;11.726;2023-02-19T01:03:24;95380.91;;;10.59;60.64
9538;BME280;4807;48.024;11.726;2023-02-19T01:06:33;95376.22;;;10.61;60.78
9538;BME280;4807;48.024;11.726;2023-02-19T01:09:42;95363.47;;;10.56;61.11
9538;BME280;4807;48.024;11.726;2023-02-19T01:12:50;95361.91;;;10.62;60.88
9538;BME280;4807;48.024;11.726;2023-02-19T01:16:02;95353.66;;;10.57;61.16
9538;BME280;4807;48.024;11.726;2023-02-19T01:19:11;95357.31;;;10.56;60.97
9538;BME280;4807;48.024;11.726;2023-02-19T01:22:21;95340.97;;;10.59;60.63
9538;BME280;4807;48.024;11.726;2023-02-19T01:25:30;95353.59;;;10.50;61.01
9538;BME280;4807;48.024;11.726;2023-02-19T01:28:39;95344.91;;;10.42;60.94
9538;BME280;4807;48.024;11.726;2023-02-19T01:31:48;95337.69;;;10.57;59.94
9538;BME280;4807;48.024;11.726;2023-02-19T01:34:57;95335.59;;;10.52;60.56
9538;BME280;4807;48.024;11.726;2023-02-19T01:38:07;95336.66;;;10.58;60.45
9538;BME280;4807;48.024;11.726;2023-02-19T01:41:18;95333.38;;;10.56;60.29
9538;BME280;4807;48.024;11.726;2023-02-19T01:45:26;95340.59;;;10.62;59.79
9538;BME280;4807;48.024;11.726;2023-02-19T01:48:38;95342.44;;;10.61;59.94
9538;BME280;4807;48.024;11.726;2023-02-19T01:51:52;95331.16;;;10.59;60.03
9538;BME280;4807;48.024;11.726;2023-02-19T01:55:09;95326.19;;;10.56;60.98
9538;BME280;4807;48.024;11.726;2023-02-19T01:58:19;95328.31;;;10.61;60.33
9538;BME280;4807;48.024;11.726;2023-02-19T02:01:28;95337.50;;;10.58;61.00
9538;BME280;4807;48.024;11.726;2023-02-19T02:04:36;95327.34;;;10.47;60.81
9538;BME280;4807;48.024;11.726;2023-02-19T02:07:48;95311.81;;;10.51;61.40
9538;BME280;4807;48.024;11.726;2023-02-19T02:11:17;95315.69;;;10.48;60.85
9538;BME280;4807;48.024;11.726;2023-02-19T02:14:29;95311.81;;;10.51;60.71
9538;BME280;4807;48.024;11.726;2023-02-19T02:17:51;95317.91;;;10.45;61.17
9538;BME280;4807;48.024;11.726;2023-02-19T02:21:29;95316.69;;;10.47;61.44
9538;BME280;4807;48.024;11.726;2023-02-19T02:29:27;95309.78;;;10.31;61.45
9538;BME280;4807;48.024;11.726;2023-02-19T02:32:45;95301.88;;;10.38;61.54
9538;BME280;4807;48.024;11.726;2023-02-19T02:36:06;95289.00;;;10.42;61.49
9538;BME280;4807;48.024;11.726;2023-02-19T02:39:21;95292.03;;;10.39;61.68
9538;BME280;4807;48.024;11.726;2023-02-19T02:42:33;95278.69;;;10.32;61.78
9538;BME280;4807;48.024;11.726;2023-02-19T02:45:45;95286.16;;;10.22;62.01
9538;BME280;4807;48.024;11.726;2023-02-19T02:49:19;95283.38;;;10.30;61.82
9538;BME280;4807;48.024;11.726;2023-02-19T02:52:32;95278.88;;;10.30;61.15
9538;BME280;4807;48.024;11.726;2023-02-19T02:56:01;95270.00;;;10.23;62.37
9538;BME280;4807;48.024;11.726;2023-02-19T02:59:16;95269.38;;;10.21;62.14
9538;BME280;4807;48.024;11.726;2023-02-19T03:02:29;95267.53;;;10.22;62.88
9538;BME280;4807;48.024;11.726;2023-02-19T03:05:40;95259.13;;;10.18;64.89
9538;BME280;4807;48.024;11.726;2023-02-19T03:09:09;95256.91;;;10.07;65.26
9538;BME280;4807;48.024;11.726;2023-02-19T03:12:23;95259.72;;;9.99;66.00
9538;BME280;4807;48.024;11.726;2023-02-19T03:15:59;95242.97;;;9.84;67.20
9538;BME280;4807;48.024;11.726;2023-02-19T03:19:26;95246.59;;;9.76;67.74
9538;BME280;4807;48.024;11.726;2023-02-19T03:22:40;95245.50;;;9.71;67.69
9538;BME280;4807;48.024;11.726;2023-02-19T03:25:49;95252.97;;;9.61;68.84
9538;BME280;4807;48.024;11.726;2023-02-19T03:29:28;95252.44;;;9.50;70.45
9538;BME280;4807;48.024;11.726;2023-02-19T03:32:47;95256.59;;;9.38;71.86
9538;BME280;4807;48.024;11.726;2023-02-19T03:36:01;95259.16;;;9.17;74.11
9538;BME280;4807;48.024;11.726;2023-02-19T03:39:19;95267.63;;;9.06;74.81
9538;BME280;4807;48.024;11.726;2023-02-19T03:42:38;95273.56;;;8.93;75.06
9538;BME280;4807;48.024;11.726;2023-02-19T03:45:59;95274.09;;;8.74;76.89
9538;BME280;4807;48.024;11.726;2023-02-19T03:49:19;95291.78;;;8.67;77.85
9538;BME280;4807;48.024;11.726;2023-02-19T03:52:38;95290.19;;;8.58;78.63
9538;BME280;4807;48.024;11.726;2023-02-19T03:56:03;95297.50;;;8.56;79.06
9538;BME280;4807;48.024;11.726;2023-02-19T03:59:20;95304.34;;;8.50;80.17
9538;BME280;4807;48.024;11.726;2023-02-19T04:02:41;95290.78;;;8.45;80.35
9538;BME280;4807;48.024;11.726;2023-02-19T04:05:58;95288.31;;;8.43;80.55
9538;BME280;4807;48.024;11.726;2023-02-19T04:09:11;95278.53;;;8.44;79.53
9538;BME280;4807;48.024;11.726;2023-02-19T04:12:28;95271.31;;;8.30;80.53
9538;BME280;4807;48.024;11.726;2023-02-19T04:15:41;95263.44;;;8.22;81.09
9538;BME280;4807;48.024;11.726;2023-02-19T04:18:54;95266.41;;;8.27;80.50
9538;BME280;4807;48.024;11.726;2023-02-19T04:22:07;95288.78;;;8.24;80.56
9538;BME280;4807;48.024;11.726;2023-02-19T04:25:17;95281.25;;;8.13;81.45
9538;BME280;4807;48.024;11.726;2023-02-19T04:28:29;95256.53;;;8.13;80.79
9538;BME280;4807;48.024;11.726;2023-02-19T04:31:38;95241.75;;;8.18;80.44
9538;BME280;4807;48.024;11.726;2023-02-19T04:34:46;95261.41;;;8.09;80.80
9538;BME280;4807;48.024;11.726;2023-02-19T04:37:54;95260.56;;;8.09;81.58
9538;BME280;4807;48.024;11.726;2023-02-19T04:41:03;95238.75;;;7.98;81.93
9538;BME280;4807;48.024;11.726;2023-02-19T04:44:12;95238.94;;;7.97;81.60
9538;BME280;4807;48.024;11.726;2023-02-19T04:47:21;95268.59;;;8.00;81.12
9538;BME280;4807;48.024;11.726;2023-02-19T04:50:29;95269.25;;;8.02;80.98
9538;BME280;4807;48.024;11.726;2023-02-19T04:53:39;95269.09;;;7.96;81.73
9538;BME280;4807;48.024;11.726;2023-02-19T04:56:55;95276.88;;;7.97;81.73
9538;BME280;4807;48.024;11.726;2023-02-19T05:00:20;95278.38;;;8.00;80.97
9538;BME280;4807;48.024;11.726;2023-02-19T05:03:40;95274.34;;;8.04;80.08
9538;BME280;4807;48.024;11.726;2023-02-19T05:06:58;95288.09;;;8.08;80.32
9538;BME280;4807;48.024;11.726;2023-02-19T05:10:43;95291.56;;;8.08;80.70
9538;BME280;4807;48.024;11.726;2023-02-19T05:14:11;95292.69;;;8.14;80.25
9538;BME280;4807;48.024;11.726;2023-02-19T05:17:35;95293.66;;;8.13;80.10
9538;BME280;4807;48.024;11.726;2023-02-19T05:20:49;95289.75;;;8.09;80.11
9538;BME280;4807;48.024;11.726;2023-02-19T05:24:05;95283.50;;;8.01;79.75
9538;BME280;4807;48.024;11.726;2023-02-19T05:27:25;95285.25;;;8.09;78.48
9538;BME280;4807;48.024;11.726;2023-02-19T05:30:39;95292.03;;;8.12;78.60
9538;BME280;4807;48.024;11.726;2023-02-19T05:34:01;95290.19;;;8.12;78.27
9538;BME280;4807;48.024;11.726;2023-02-19T05:37:20;95300.63;;;8.14;77.59
9538;BME280;4807;48.024;11.726;2023-02-19T05:40:41;95284.53;;;8.15;78.02
9538;BME280;4807;48.024;11.726;2023-02-19T05:44:03;95297.16;;;8.13;77.18
9538;BME280;4807;48.024;11.726;2023-02-19T05:47:20;95290.41;;;8.11;77.01
9538;BME280;4807;48.024;11.726;2023-02-19T05:50:49;95298.28;;;8.19;76.22
9538;BME280;4807;48.024;11.726;2023-02-19T05:54:19;95304.94;;;8.15;76.85
9538;BME280;4807;48.024;11.726;2023-02-19T05:57:45;95310.47;;;8.28;75.66
9538;BME280;4807;48.024;11.726;2023-02-19T06:00:58;95306.81;;;8.29;74.77
9538;BME280;4807;48.024;11.726;2023-02-19T06:04:14;95310.47;;;8.28;74.69
9538;BME280;4807;48.024;11.726;2023-02-19T06:07:37;95310.19;;;8.23;75.60
9538;BME280;4807;48.024;11.726;2023-02-19T06:10:50;95318.63;;;8.26;75.77
9538;BME280;4807;48.024;11.726;2023-02-19T06:14:05;95315.44;;;8.31;75.62
9538;BME280;4807;48.024;11.726;2023-02-19T06:17:24;95325.25;;;8.22;75.91
9538;BME280;4807;48.024;11.726;2023-02-19T06:20:46;95329.03;;;8.28;76.01
9538;BME280;4807;48.024;11.726;2023-02-19T06:24:15;95331.69;;;8.28;76.01
9538;BME280;4807;48.024;11.726;2023-02-19T06:27:32;95339.69;;;8.20;76.62
9538;BME280;4807;48.024;11.726;2023-02-19T06:30:48;95342.63;;;8.33;74.96
9538;BME280;4807;48.024;11.726;2023-02-19T06:34:05;95348.59;;;8.35;75.51
9538;BME280;4807;48.024;11.726;2023-02-19T06:37:25;95356.34;;;8.36;75.75
9538;BME280;4807;48.024;11.726;2023-02-19T06:40:52;95358.38;;;8.34;75.61
9538;BME280;4807;48.024;11.726;2023-02-19T06:48:31;95373.09;;;8.37;74.91
9538;BME280;4807;48.024;11.726;2023-02-19T06:52:27;95372.97;;;8.30;75.88
9538;BME280;4807;48.024;11.726;2023-02-19T06:56:32;95383.72;;;8.37;75.34
9538;BME280;4807;48.024;11.726;2023-02-19T07:00:13;95381.06;;;8.37;75.09
9538;BME280;4807;48.024;11.726;2023-02-19T07:04:10;95387.50;;;8.43;75.52
9538;BME280;4807;48.024;11.726;2023-02-19T07:07:54;95393.28;;;8.46;76.27
9538;BME280;4807;48.024;11.726;2023-02-19T07:11:19;95393.94;;;8.48;75.32
9538;BME280;4807;48.024;11.726;2023-02-19T07:14:33;95391.72;;;8.52;75.57
9538;BME280;4807;48.024;11.726;2023-02-19T07:17:42;95402.94;;;8.62;74.82
9538;BME280;4807;48.024;11.726;2023-02-19T07:20:51;95407.78;;;8.58;75.29
9538;BME280;4807;48.024;11.726;2023-02-19T07:24:00;95404.72;;;8.69;74.93
9538;BME280;4807;48.024;11.726;2023-02-19T07:27:09;95411.31;;;8.73;74.70
9538;BME280;4807;48.024;11.726;2023-02-19T07:30:20;95407.38;;;8.69;75.06
9538;BME280;4807;48.024;11.726;2023-02-19T07:33:28;95413.16;;;8.73;75.06
9538;BME280;4807;48.024;11.726;2023-02-19T07:36:37;95417.69;;;8.64;74.71
9538;BME280;4807;48.024;11.726;2023-02-19T07:39:45;95422.47;;;8.69;74.56
9538;BME280;4807;48.024;11.726;2023-02-19T07:42:54;95433.00;;;8.77;74.77
9538;BME280;4807;48.024;11.726;2023-02-19T07:46:05;95425.38;;;8.82;74.38
9538;BME280;4807;48.024;11.726;2023-02-19T07:49:15;95425.56;;;8.95;73.65
9538;BME280;4807;48.024;11.726;2023-02-19T07:52:23;95443.00;;;8.98;73.93
9538;BME280;4807;48.024;11.726;2023-02-19T07:55:32;95445.19;;;9.09;74.19
9538;BME280;4807;48.024;11.726;2023-02-19T07:58:41;95447.41;;;9.05;74.08
9538;BME280;4807;48.024;11.726;2023-02-19T08:01:54;95444.44;;;9.00;74.73
9538;BME280;4807;48.024;11.726;2023-02-19T08:05:20;95450.47;;;8.94;74.80
9538;BME280;4807;48.024;11.726;2023-02-19T08:08:29;95444.16;;;8.95;74.06
9538;BME280;4807;48.024;11.726;2023-02-19T08:11:38;95462.59;;;8.97;75.12
9538;BME280;4807;48.024;11.726;2023-02-19T08:15:04;95463.41;;;8.97;74.06
9538;BME280;4807;48.024;11.726;2023-02-19T08:18:15;95463.94;;;8.93;75.17
9538;BME280;4807;48.024;11.726;2023-02-19T08:21:25;95465.25;;;8.97;74.48
9538;BME280;4807;48.024;11.726;2023-02-19T08:24:35;95465.69;;;9.00;74.48
9538;BME280;4807;48.024;11.726;2023-02-19T08:27:49;95469.47;;;9.06;73.69
9538;BME280;4807;48.024;11.726;2023-02-19T08:31:03;95469.94;;;9.09;74.12
9538;BME280;4807;48.024;11.726;2023-02-19T08:34:14;95464.16;;;9.06;74.19
9538;BME280;4807;48.024;11.726;2023-02-19T08:37:22;95479.31;;;9.20;73.62
9538;BME280;4807;48.024;11.726;2023-02-19T08:40:31;95470.06;;;9.16;74.20
9538;BME280;4807;48.024;11.726;2023-02-19T08:43:41;95470.75;;;9.10;74.19
9538;BME280;4807;48.024;11.726;2023-02-19T08:46:50;95474.06;;;9.12;74.83
9538;BME280;4807;48.024;11.726;2023-02-19T08:50:00;95481.69;;;9.15;74.48
9538;BME280;4807;48.024;11.726;2023-02-19T08:53:11;95480.97;;;9.21;75.39
9538;BME280;4807;48.024;11.726;2023-02-19T08:56:19;95487.13;;;9.22;75.34
9538;BME280;4807;48.024;11.726;2023-02-19T08:59:28;95501.69;;;9.03;76.70
9538;BME280;4807;48.024;11.726;2023-02-19T09:02:36;95507.50;;;8.84;78.52
9538;BME280;4807;48.024;11.726;2023-02-19T09:05:46;95505.47;;;8.86;79.43
9538;BME280;4807;48.024;11.726;2023-02-19T09:08:55;95506.69;;;8.83;79.73
9538;BME280;4807;48.024;11.726;2023-02-19T09:12:04;95513.38;;;8.94;79.97
9538;BME280;4807;48.024;11.726;2023-02-19T09:15:12;95510.66;;;9.02;78.62
9538;BME280;4807;48.024;11.726;2023-02-19T09:18:20;95498.97;;;9.11;78.46
9538;BME280;4807;48.024;11.726;2023-02-19T09:21:30;95506.59;;;9.14;77.69
9538;BME280;4807;48.024;11.726;2023-02-19T09:24:38;95517.94;;;9.08;76.99
9538;BME280;4807;48.024;11.726;2023-02-19T09:27:46;95530.31;;;8.93;76.74
9538;BME280;4807;48.024;11.726;2023-02-19T09:30:55;95512.38;;;8.72;78.93
9538;BME280;4807;48.024;11.726;2023-02-19T09:34:04;95515.47;;;8.53;78.69
9538;BME280;4807;48.024;11.726;2023-02-19T09:37:14;95520.47;;;8.48;80.14
9538;BME280;4807;48.024;11.726;2023-02-19T09:40:22;95518.31;;;8.51;80.16
9538;BME280;4807;48.024;11.726;2023-02-19T09:43:31;95522.09;;;8.57;79.45
9538;BME280;4807;48.024;11.726;2023-02-19T09:46:44;95514.97;;;8.57;79.73
9538;BME280;4807;48.024;11.726;2023-02-19T09:49:58;95525.16;;;8.68;79.20
9538;BME280;4807;48.024;11.726;2023-02-19T09:53:18;95525.78;;;8.78;78.29
9538;BME280;4807;48.024;11.726;2023-02-19T09:56:28;95523.44;;;9.06;79.01
9538;BME280;4807;48.024;11.726;2023-02-19T09:59:42;95522.47;;;9.22;77.23
9538;BME280;4807;48.024;11.726;2023-02-19T10:02:54;95528.84;;;9.36;77.15
9538;BME280;4807;48.024;11.726;2023-02-19T10:06:15;95531.09;;;9.62;76.77
9538;BME280;4807;48.024;11.726;2023-02-19T10:09:29;95527.84;;;9.37;77.17
9538;BME280;4807;48.024;11.726;2023-02-19T10:12:44;95535.69;;;9.30;76.87
9538;BME280;4807;48.024;11.726;2023-02-19T10:15:57;95541.38;;;9.27;77.30
9538;BME280;4807;48.024;11.726;2023-02-19T10:19:08;95542.44;;;9.18;77.62
9538;BME280;4807;48.024;11.726;2023-02-19T10:22:18;95552.47;;;9.08;77.61
9538;BME280;4807;48.024;11.726;2023-02-19T10:25:30;95563.44;;;9.05;78.17
9538;BME280;4807;48.024;11.726;2023-02-19T10:28:39;95552.66;;;8.84;75.77
9538;BME280;4807;48.024;11.726;2023-02-19T10:31:48;95565.56;;;8.87;74.28
9538;BME280;4807;48.024;11.726;2023-02-19T10:35:11;95565.50;;;8.95;74.38
9538;BME280;4807;48.024;11.726;2023-02-19T10:38:24;95564.06;;;9.15;73.81
9538;BME280;4807;48.024;11.726;2023-02-19T10:41:40;95570.41;;;9.06;72.48
9538;BME280;4807;48.024;11.726;2023-02-19T10:44:54;95558.84;;;9.22;73.01
9538;BME280;4807;48.024;11.726;2023-02-19T10:48:17;95573.91;;;9.29;72.37
9538;BME280;4807;48.024;11.726;2023-02-19T10:51:33;95559.88;;;9.58;71.99
9538;BME280;4807;48.024;11.726;2023-02-19T10:54:43;95566.19;;;9.94;70.92
9538;BME280;4807;48.024;11.726;2023-02-19T10:57:53;95571.03;;;9.91;70.13
9538;BME280;4807;48.024;11.726;2023-02-19T11:01:12;95560.78;;;9.88;68.65
9538;BME280;4807;48.024;11.726;2023-02-19T11:04:24;95554.16;;;9.84;68.28
9538;BME280;4807;48.024;11.726;2023-02-19T11:07:33;95558.16;;;10.17;69.38
9538;BME280;4807;48.024;11.726;2023-02-19T11:10:47;95558.63;;;10.36;69.25
9538;BME280;4807;48.024;11.726;2023-02-19T11:14:01;95554.75;;;10.23;68.80
9538;BME280;4807;48.024;11.726;2023-02-19T11:17:23;95563.19;;;10.42;69.41
9538;BME280;4807;48.024;11.726;2023-02-19T11:20:32;95566.13;;;10.32;70.04
9538;BME280;4807;48.024;11.726;2023-02-19T11:23:45;95557.94;;;10.04;69.38
9538;BME280;4807;48.024;11.726;2023-02-19T11:26:56;95555.44;;;9.88;69.48
9538;BME280;4807;48.024;11.726;2023-02-19T11:30:36;95560.38;;;9.91;70.74
9538;BME280;4807;48.024;11.726;2023-02-19T11:33:54;95550.13;;;9.88;68.96
9538;BME280;4807;48.024;11.726;2023-02-19T11:37:13;95560.19;;;9.78;70.14
9538;BME280;4807;48.024;11.726;2023-02-19T11:40:33;95565.94;;;9.67;69.04
9538;BME280;4807;48.024;11.726;2023-02-19T11:44:02;95567.91;;;9.73;69.94
9538;BME280;4807;48.024;11.726;2023-02-19T11:47:53;95557.84;;;9.45;69.00
9538;BME280;4807;48.024;11.726;2023-02-19T11:51:44;95547.56;;;9.80;69.93
9538;BME280;4807;48.024;11.726;2023-02-19T11:55:12;95555.41;;;10.25;69.06
9538;BME280;4807;48.024;11.726;2023-02-19T11:58:55;95551.78;;;10.48;68.45
9538;BME280;4807;48.024;11.726;2023-02-19T12:02:49;95548.81;;;10.72;67.70
9538;BME280;4807;48.024;11.726;2023-02-19T12:06:26;95554.63;;;10.46;67.81
9538;BME280;4807;48.024;11.726;2023-02-19T12:09:52;95553.66;;;10.32;67.95
9538;BME280;4807;48.024;11.726;2023-02-19T12:13:16;95543.28;;;10.38;66.99
9538;BME280;4807;48.024;11.726;2023-02-19T12:16:34;95537.88;;;10.46;67.13
9538;BME280;4807;48.024;11.726;2023-02-19T12:20:03;95533.41;;;10.67;67.13
9538;BME280;4807;48.024;11.726;2023-02-19T12:23:47;95531.41;;;10.69;66.43
9538;BME280;4807;48.024;11.726;2023-02-19T12:27:18;95546.56;;;10.40;67.13
9538;BME280;4807;48.024;11.726;2023-02-19T12:35:21;95547.22;;;10.12;64.79
9538;BME280;4807;48.024;11.726;2023-02-19T12:38:42;95549.22;;;10.10;66.81
9538;BME280;4807;48.024;11.726;2023-02-19T12:42:01;95544.72;;;10.11;67.74
9538;BME280;4807;48.024;11.726;2023-02-19T12:45:20;95567.63;;;9.82;64.23
9538;BME280;4807;48.024;11.726;2023-02-19T12:48:41;95560.78;;;9.65;62.49
9538;BME280;4807;48.024;11.726;2023-02-19T12:52:01;95563.22;;;9.37;63.94
9538;BME280;4807;48.024;11.726;2023-02-19T12:55:24;95576.91;;;9.26;67.04
9538;BME280;4807;48.024;11.726;2023-02-19T12:58:40;95572.25;;;9.28;66.62
9538;BME280;4807;48.024;11.726;2023-02-19T13:01:57;95578.69;;;9.34;64.38
9538;BME280;4807;48.024;11.726;2023-02-19T13:05:20;95577.38;;;9.52;64.38
9538;BME280;4807;48.024;11.726;2023-02-19T13:09:01;95590.84;;;9.51;63.01
9538;BME280;4807;48.024;11.726;2023-02-19T13:12:21;95590.56;;;9.23;64.02
9538;BME280;4807;48.024;11.726;2023-02-19T13:15:37;95575.88;;;8.82;65.05
9538;BME280;4807;48.024;11.726;2023-02-19T13:18:53;95595.75;;;8.86;66.00
9538;BME280;4807;48.024;11.726;2023-02-19T13:22:23;95579.91;;;9.00;64.75
9538;BME280;4807;48.024;11.726;2023-02-19T13:26:14;95597.59;;;9.16;63.85
9538;BME280;4807;48.024;11.726;2023-02-19T13:29:51;95587.75;;;9.16;63.19
9538;BME280;4807;48.024;11.726;2023-02-19T13:33:20;95568.34;;;9.39;62.48
9538;BME280;4807;48.024;11.726;2023-02-19T13:36:35;95590.50;;;9.54;60.52
9538;BME280;4807;48.024;11.726;2023-02-19T13:39:50;95590.09;;;9.80;60.32
9538;BME280;4807;48.024;11.726;2023-02-19T13:43:02;95566.44;;;9.85;59.40
9538;BME280;4807;48.024;11.726;2023-02-19T13:46:15;95574.66;;;9.61;59.12
9538;BME280;4807;48.024;11.726;2023-02-19T13:49:40;95572.00;;;9.38;59.19
9538;BME280;4807;48.024;11.726;2023-02-19T13:52:53;95575.44;;;9.24;59.78
9538;BME280;4807;48.024;11.726;2023-02-19T13:56:02;95592.84;;;9.26;60.54
9538;BME280;4807;48.024;11.726;2023-02-19T13:59:36;95583.22;;;9.25;59.45
9538;BME280;4807;48.024;11.726;2023-02-19T14:02:45;95591.00;;;9.04;61.76
9538;BME280;4807;48.024;11.726;2023-02-19T14:06:23;95597.00;;;9.29;60.81
9538;BME280;4807;48.024;11.726;2023-02-19T14:09:55;95597.47;;;9.32;60.61
9538;BME280;4807;48.024;11.726;2023-02-19T14:13:10;95595.09;;;9.14;61.27
9538;BME280;4807;48.024;11.726;2023-02-19T14:16:49;95609.75;;;8.40;67.24
9538;BME280;4807;48.024;11.726;2023-02-19T14:20:00;95601.31;;;8.21;69.01
9538;BME280;4807;48.024;11.726;2023-02-19T14:23:16;95613.91;;;8.35;65.89
9538;BME280;4807;48.024;11.726;2023-02-19T14:26:33;95631.81;;;8.41;66.01
9538;BME280;4807;48.024;11.726;2023-02-19T14:29:43;95621.19;;;8.41;64.56
9538;BME280;4807;48.024;11.726;2023-02-19T14:32:54;95622.31;;;8.47;65.29
9538;BME280;4807;48.024;11.726;2023-02-19T14:36:30;95620.50;;;8.47;65.52
9538;BME280;4807;48.024;11.726;2023-02-19T14:39:47;95624.47;;;8.51;65.92
9538;BME280;4807;48.024;11.726;2023-02-19T14:43:00;95623.16;;;8.47;65.25
9538;BME280;4807;48.024;11.726;2023-02-19T14:46:19;95629.13;;;8.49;66.12
9538;BME280;4807;48.024;11.726;2023-02-19T14:49:39;95630.09;;;8.56;64.69
9538;BME280;4807;48.024;11.726;2023-02-19T14:52:53;95617.28;;;8.60;65.60
9538;BME280;4807;48.024;11.726;2023-02-19T14:56:05;95622.13;;;8.56;64.00
9538;BME280;4807;48.024;11.726;2023-02-19T14:59:43;95626.78;;;8.54;63.87
9538;BME280;4807;48.024;11.726;2023-02-19T15:03:38;95627.59;;;8.55;63.69
9538;BME280;4807;48.024;11.726;2023-02-19T15:06:50;95634.59;;;8.48;64.06
9538;BME280;4807;48.024;11.726;2023-02-19T15:10:02;95644.34;;;8.55;63.35
9538;BME280;4807;48.024;11.726;2023-02-19T15:13:22;95638.53;;;8.60;62.42
9538;BME280;4807;48.024;11.726;2023-02-19T15:16:34;95638.53;;;8.60;62.79
9538;BME280;4807;48.024;11.726;2023-02-19T15:19:43;95645.00;;;8.65;62.12
9538;BME280;4807;48.024;11.726;2023-02-19T15:22:55;95633.22;;;8.60;62.44
9538;BME280;4807;48.024;11.726;2023-02-19T15:26:21;95646.00;;;8.56;61.92
9538;BME280;4807;48.024;11.726;2023-02-19T15:29:31;95652.81;;;8.59;61.60
9538;BME280;4807;48.024;11.726;2023-02-19T15:32:51;95650.81;;;8.53;61.26
9538;BME280;4807;48.024;11.726;2023-02-19T15:36:05;95663.09;;;8.54;61.73
9538;BME280;4807;48.024;11.726;2023-02-19T15:39:21;95666.59;;;8.54;61.78
9538;BME280;4807;48.024;11.726;2023-02-19T15:42:37;95667.56;;;8.53;61.60
9538;BME280;4807;48.024;11.726;2023-02-19T15:46:06;95661.63;;;8.51;61.63
9538;BME280;4807;48.024;11.726;2023-02-19T15:49:26;95655.31;;;8.52;61.06
9538;BME280;4807;48.024;11.726;2023-02-19T15:52:46;95664.91;;;8.53;60.91
9538;BME280;4807;48.024;11.726;2023-02-19T15:56:13;95663.25;;;8.52;60.78
9538;BME280;4807;48.024;11.726;2023-02-19T15:59:33;95646.34;;;8.53;60.54
9538;BME280;4807;48.024;11.726;2023-02-19T16:02:45;95654.81;;;8.57;61.13
9538;BME280;4807;48.024;11.726;2023-02-19T16:06:01;95651.81;;;8.52;62.25
9538;BME280;4807;48.024;11.726;2023-02-19T16:09:20;95658.97;;;8.51;60.34
9538;BME280;4807;48.024;11.726;2023-02-19T16:12:35;95647.53;;;8.51;60.74
9538;BME280;4807;48.024;11.726;2023-02-19T16:16:02;95652.03;;;8.42;60.50
9538;BME280;4807;48.024;11.726;2023-02-19T16:19:18;95661.69;;;8.35;60.53
9538;BME280;4807;48.024;11.726;2023-02-19T16:22:29;95659.66;;;8.21;61.49
9538;BME280;4807;48.024;11.726;2023-02-19T16:25:41;95659.38;;;8.08;61.53
9538;BME280;4807;48.024;11.726;2023-02-19T16:28:53;95665.16;;;7.95;61.84
9538;BME280;4807;48.024;11.726;2023-02-19T16:32:05;95667.19;;;7.77;62.58
9538;BME280;4807;48.024;11.726;2023-02-19T16:35:35;95681.28;;;7.77;62.73
9538;BME280;4807;48.024;11.726;2023-02-19T16:39:19;95693.34;;;7.63;62.77
9538;BME280;4807;48.024;11.726;2023-02-19T16:42:27;95685.91;;;7.75;64.23
9538;BME280;4807;48.024;11.726;2023-02-19T16:45:40;95690.22;;;7.76;63.31
9538;BME280;4807;48.024;11.726;2023-02-19T16:48:50;95695.97;;;7.55;64.62
9538;BME280;4807;48.024;11.726;2023-02-19T16:51:59;95697.16;;;7.53;64.43
9538;BME280;4807;48.024;11.726;2023-02-19T16:55:11;95709.59;;;7.60;64.34
9538;BME280;4807;48.024;11.726;2023-02-19T16:58:20;95721.34;;;7.66;64.12
9538;BME280;4807;48.024;11.726;2023-02-19T17:01:30;95716.19;;;7.64;63.98
9538;BME280;4807;48.024;11.726;2023-02-19T17:04:39;95724.69;;;7.76;63.85
9538;BME280;4807;48.024;11.726;2023-02-19T17:07:48;95722.19;;;7.83;64.19
9538;BME280;4807;48.024;11.726;2023-02-19T17:10:57;95726.34;;;7.77;63.96
9538;BME280;4807;48.024;11.726;2023-02-19T17:14:08;95743.25;;;7.92;63.24
9538;BME280;4807;48.024;11.726;2023-02-19T17:17:18;95735.97;;;7.86;63.87
9538;BME280;4807;48.024;11.726;2023-02-19T17:20:29;95743.56;;;7.89;63.21
9538;BME280;4807;48.024;11.726;2023-02-19T17:23:38;95738.94;;;7.91;63.78
9538;BME280;4807;48.024;11.726;2023-02-19T17:26:47;95743.25;;;7.92;64.11
9538;BME280;4807;48.024;11.726;2023-02-19T17:29:58;95754.00;;;7.91;64.19
9538;BME280;4807;48.024;11.726;2023-02-19T17:33:08;95761.47;;;7.87;64.40
9538;BME280;4807;48.024;11.726;2023-02-19T17:36:20;95757.81;;;7.96;63.97
9538;BME280;4807;48.024;11.726;2023-02-19T17:39:29;95765.63;;;7.98;63.02
9538;BME280;4807;48.024;11.726;2023-02-19T17:42:37;95775.75;;;8.02;63.05
9538;BME280;4807;48.024;11.726;2023-02-19T17:45:45;95767.28;;;7.99;62.77
9538;BME280;4807;48.024;11.726;2023-02-19T17:48:55;95766.44;;;7.98;62.66
9538;BME280;4807;48.024;11.726;2023-02-19T17:52:04;95775.75;;;8.02;62.55
9538;BME280;4807;48.024;11.726;2023-02-19T17:55:14;95777.22;;;7.97;63.53
9538;BME280;4807;48.024;11.726;2023-02-19T17:58:24;95788.50;;;7.99;63.05
9538;BME280;4807;48.024;11.726;2023-02-19T18:01:32;95798.09;;;8.00;63.11